Time;durP1;ratioP1;P1;durP2;ratioP2;P2;SDS_P1;SDS_P2;PMS_P1;PMS_P2;Temp;Humidity;BMP_temperature;BMP_pressure;BME280_temperature;BME280_humidity;BME280_pressure;Samples;Min_cycle;Max_cycle;Signal;HPM_P1;HPM_P2
2022/12/21 00:01:15;;;;;;;1999.90;999.90;;;11.70;99.90;;;;;;5051328;28;20406;-68
2022/12/21 00:03:42;;;;;;;1999.90;999.90;;;11.50;99.90;;;;;;5051284;28;20836;-68
2022/12/21 00:06:08;;;;;;;1999.90;999.90;;;11.40;99.90;;;;;;5051288;28;20414;-68
2022/12/21 00:08:42;;;;;;;1999.90;999.90;;;11.60;99.90;;;;;;5051160;28;20420;-68
2022/12/21 00:11:09;;;;;;;1999.90;999.90;;;11.00;99.90;;;;;;5051301;28;20934;-68
2022/12/21 00:13:35;;;;;;;1999.90;999.90;;;11.30;99.90;;;;;;5051137;28;20466;-68
2022/12/21 00:16:06;;;;;;;1999.90;999.90;;;11.30;99.90;;;;;;5051140;28;20414;-68
2022/12/21 00:18:34;;;;;;;1999.90;999.90;;;11.20;99.90;;;;;;5053095;28;20166;-68
2022/12/21 00:21:09;;;;;;;1999.90;999.90;;;10.90;99.90;;;;;;5054858;28;20904;-68
2022/12/21 00:23:34;;;;;;;1999.90;999.90;;;10.90;99.90;;;;;;5054655;28;20435;-68
2022/12/21 00:26:03;;;;;;;1999.90;999.90;;;11.20;99.90;;;;;;5054855;28;20405;-68
2022/12/21 00:28:29;;;;;;;1999.90;999.90;;;11.00;99.90;;;;;;5054464;28;20179;-68
2022/12/21 00:30:55;;;;;;;1999.90;999.90;;;11.30;99.90;;;;;;5054593;28;20580;-68
2022/12/21 00:33:21;;;;;;;1999.90;999.90;;;11.60;99.90;;;;;;5054502;28;20227;-68
2022/12/21 00:35:49;;;;;;;1999.90;999.90;;;11.20;99.90;;;;;;5054584;28;20423;-68
2022/12/21 00:38:17;;;;;;;1999.90;999.90;;;11.50;99.90;;;;;;5054085;28;20511;-68
2022/12/21 00:40:43;;;;;;;1999.90;999.90;;;11.30;99.90;;;;;;5054459;28;20429;-68
2022/12/21 00:43:09;;;;;;;1999.90;999.90;;;10.90;99.90;;;;;;5054333;28;20432;-68
2022/12/21 00:45:35;;;;;;;1999.90;999.90;;;10.70;99.90;;;;;;5054252;28;20406;-68
2022/12/21 00:48:01;;;;;;;1999.90;999.90;;;11.40;99.90;;;;;;5054113;28;20489;-67
2022/12/21 00:50:26;;;;;;;1999.90;999.90;;;10.90;99.90;;;;;;5054280;28;20178;-68
2022/12/21 00:52:52;;;;;;;1999.90;999.90;;;11.30;99.90;;;;;;5054026;28;20569;-68
2022/12/21 00:55:17;;;;;;;1999.90;999.90;;;11.30;99.90;;;;;;5054210;28;20178;-68
2022/12/21 00:57:43;;;;;;;1999.90;999.90;;;11.30;99.90;;;;;;5053900;28;20254;-68
2022/12/21 01:00:09;;;;;;;1999.90;999.90;;;11.00;99.90;;;;;;5054091;28;20171;-68
2022/12/21 01:02:35;;;;;;;1999.90;999.90;;;11.30;99.90;;;;;;5053985;28;20569;-68
2022/12/21 01:05:01;;;;;;;1999.90;999.90;;;11.00;99.90;;;;;;5054026;28;20410;-68
2022/12/21 01:07:27;;;;;;;1999.90;999.90;;;10.90;99.90;;;;;;5053632;28;20414;-68
2022/12/21 01:09:53;;;;;;;1999.90;999.90;;;10.90;99.90;;;;;;5053884;28;20740;-68
2022/12/21 01:12:18;;;;;;;1999.90;999.90;;;10.90;99.90;;;;;;5053880;28;20203;-68
2022/12/21 01:14:44;;;;;;;1999.90;999.90;;;11.00;99.90;;;;;;5053856;28;20607;-68
2022/12/21 01:17:09;;;;;;;1999.90;999.90;;;11.20;99.90;;;;;;5053703;28;20182;-68
2022/12/21 01:19:35;;;;;;;1999.90;999.90;;;10.90;99.90;;;;;;5053722;28;20176;-67
2022/12/21 01:22:01;;;;;;;1999.90;999.90;;;11.30;99.90;;;;;;5053568;28;20195;-68
2022/12/21 01:24:26;;;;;;;1999.90;999.90;;;11.30;99.90;;;;;;5053721;28;20175;-67
2022/12/21 01:26:52;;;;;;;1999.90;999.90;;;11.20;99.90;;;;;;5053547;28;20168;-68
2022/12/21 01:29:17;;;;;;;1999.90;999.90;;;10.90;99.90;;;;;;5052930;28;20551;-68
2022/12/21 01:31:43;;;;;;;1999.90;999.90;;;11.00;99.90;;;;;;5053702;28;20733;-68
2022/12/21 01:34:09;;;;;;;1999.90;999.90;;;11.10;99.90;;;;;;5053677;28;20573;-69
2022/12/21 01:36:34;;;;;;;1999.90;999.90;;;11.10;99.90;;;;;;5053290;28;20523;-69
2022/12/21 01:39:00;;;;;;;1999.90;999.90;;;10.90;99.90;;;;;;5053258;28;20174;-69
2022/12/21 01:41:27;;;;;;;1999.90;999.90;;;10.90;99.90;;;;;;5053305;28;20175;-68
2022/12/21 01:44:00;;;;;;;1999.90;999.90;;;11.20;99.90;;;;;;5053402;28;20179;-68
2022/12/21 01:46:36;;;;;;;1999.90;999.90;;;11.60;99.90;;;;;;5053197;28;20432;-69
2022/12/21 01:49:01;;;;;;;1999.90;999.90;;;10.90;99.90;;;;;;5053069;28;20466;-69
2022/12/21 01:51:28;;;;;;;1999.90;999.90;;;11.60;99.90;;;;;;5053072;28;20409;-69
2022/12/21 01:54:00;;;;;;;1999.90;999.90;;;11.10;99.90;;;;;;5053072;28;20195;-69
2022/12/21 01:56:32;;;;;;;1999.90;999.90;;;11.10;99.90;;;;;;5053032;28;20402;-69
2022/12/21 01:59:08;;;;;;;1999.90;999.90;;;11.20;99.90;;;;;;5052851;28;21126;-69
2022/12/21 02:01:34;;;;;;;1999.90;999.90;;;11.10;99.90;;;;;;5052837;28;20405;-69
2022/12/21 02:04:00;;;;;;;1999.90;999.90;;;11.20;99.90;;;;;;5052965;28;20410;-69
2022/12/21 02:06:35;;;;;;;1999.90;999.90;;;11.20;99.90;;;;;;5052710;28;20417;-69
2022/12/21 02:09:02;;;;;;;1999.90;999.90;;;11.30;99.90;;;;;;5052693;28;20402;-68
2022/12/21 02:11:27;;;;;;;1999.90;999.90;;;11.50;99.90;;;;;;5052720;28;20410;-69
2022/12/21 02:13:53;;;;;;;1999.90;999.90;;;11.10;99.90;;;;;;5052647;28;20947;-69
2022/12/21 02:16:48;;;;;;;1999.90;999.90;;;11.40;99.90;;;;;;5052669;28;20164;-69
2022/12/21 02:19:34;;;;;;;1999.90;999.90;;;11.10;99.90;;;;;;5044894;28;20605;-69
2022/12/21 02:22:05;;;;;;;1999.90;999.90;;;11.30;99.90;;;;;;5052632;28;20457;-69
2022/12/21 02:25:01;;;;;;;1999.90;999.90;;;11.40;99.90;;;;;;5052477;28;20832;-69
2022/12/21 02:27:27;;;;;;;1999.90;999.90;;;;;;;;;;5052193;28;20416;-69
2022/12/21 02:30:16;;;;;;;1999.90;999.90;;;11.30;99.90;;;;;;5052364;28;20485;-69
2022/12/21 02:32:47;;;;;;;1999.90;999.90;;;11.00;99.90;;;;;;5052160;28;20465;-68
2022/12/21 02:35:21;;;;;;;1999.90;999.90;;;11.20;99.90;;;;;;5052368;28;20464;-69
2022/12/21 02:38:15;;;;;;;1999.90;999.90;;;11.10;99.90;;;;;;5052043;28;20420;-69
2022/12/21 02:40:58;;;;;;;1999.90;999.90;;;11.00;99.90;;;;;;5017811;28;20920;-69
2022/12/21 02:46:59;;;;;;;1999.90;999.90;;;11.10;99.90;;;;;;5052104;28;20835;-68
2022/12/21 02:49:43;;;;;;;1999.90;999.90;;;11.30;99.90;;;;;;5051983;28;20464;-69
2022/12/21 02:52:27;;;;;;;1999.90;999.90;;;11.20;99.90;;;;;;5052074;28;20414;-69
2022/12/21 02:55:00;;;;;;;1999.90;999.90;;;11.40;99.90;;;;;;5052087;28;20401;-69
2022/12/21 02:57:37;;;;;;;1999.90;999.90;;;11.40;99.90;;;;;;5051798;28;20423;-69
2022/12/21 03:00:05;;;;;;;1999.90;999.90;;;11.40;99.90;;;;;;5051980;28;20403;-69
2022/12/21 03:06:21;;;;;;;1999.90;999.90;;;11.40;99.90;;;;;;5051869;28;20804;-69
2022/12/21 03:08:55;;;;;;;1999.90;999.90;;;11.20;99.90;;;;;;5051701;28;20395;-69
2022/12/21 03:11:28;;;;;;;1999.90;999.90;;;11.40;99.90;;;;;;5051803;28;20897;-69
2022/12/21 03:14:09;;;;;;;1999.90;999.90;;;11.80;99.90;;;;;;5051788;28;20484;-69
2022/12/21 03:16:40;;;;;;;1999.90;999.90;;;11.40;99.90;;;;;;5052137;28;20394;-69
2022/12/21 03:19:18;;;;;;;1999.90;999.90;;;11.20;99.90;;;;;;5051642;28;20408;-68
2022/12/21 03:22:02;;;;;;;1999.90;999.90;;;11.20;99.90;;;;;;5051928;28;20797;-68
2022/12/21 03:24:46;;;;;;;1999.90;999.90;;;11.70;99.90;;;;;;5051835;28;20759;-69
2022/12/21 03:27:14;;;;;;;1999.90;999.90;;;11.50;99.90;;;;;;5051614;28;20399;-69
2022/12/21 03:29:52;;;;;;;1999.90;999.90;;;11.40;99.90;;;;;;5051653;28;20442;-69
2022/12/21 03:32:32;;;;;;;1999.90;999.90;;;11.40;99.90;;;;;;5065759;28;20448;-68
2022/12/21 03:34:58;;;;;;;1999.90;999.90;;;11.70;99.90;;;;;;5071648;28;20482;-68
2022/12/21 03:37:32;;;;;;;1999.90;999.90;;;11.40;99.90;;;;;;5071242;28;20421;-69
2022/12/21 03:40:23;;;;;;;1999.90;999.90;;;11.30;99.90;;;;;;5071832;28;20475;-69
2022/12/21 03:42:58;;;;;;;1999.90;999.90;;;11.60;99.90;;;;;;4984950;28;21049;-69
2022/12/21 03:45:29;;;;;;;1999.90;999.90;;;11.50;99.90;;;;;;4960942;28;20513;-69
2022/12/21 03:48:05;;;;;;;1999.90;999.90;;;11.50;99.90;;;;;;4869833;29;20439;-69
2022/12/21 03:50:35;;;;;;;1999.90;999.90;;;11.50;99.90;;;;;;4771128;29;1070422;-68
2022/12/21 03:53:16;;;;;;;1999.90;999.90;;;11.90;99.90;;;;;;4787933;29;20311;-68
2022/12/21 03:55:44;;;;;;;1999.90;999.90;;;11.20;99.90;;;;;;4790184;29;20407;-69
2022/12/21 03:58:10;;;;;;;1999.90;999.90;;;11.70;99.90;;;;;;4789824;29;20417;-69
2022/12/21 04:00:46;;;;;;;1999.90;999.90;;;11.30;99.90;;;;;;4790014;29;20419;-68
2022/12/21 04:03:15;;;;;;;1999.90;999.90;;;11.20;99.90;;;;;;4790018;29;20480;-68
2022/12/21 04:05:49;;;;;;;1999.90;999.90;;;11.30;99.90;;;;;;4789908;29;20422;-69
2022/12/21 04:08:15;;;;;;;1999.90;999.90;;;11.50;99.90;;;;;;4789791;29;20936;-69
2022/12/21 04:10:41;;;;;;;1999.90;999.90;;;;;;;;;;4789863;29;20415;-68
2022/12/21 04:13:07;;;;;;;1999.90;999.90;;;;;;;;;;4789756;29;20466;-68
2022/12/21 04:19:57;;;;;;;1999.90;999.90;;;11.30;99.90;;;;;;4789539;30;20460;-69
2022/12/21 04:21:04;;;;;;;1999.90;999.90;;;;;;;;;;4789580;29;20800;-69
2022/12/21 04:28:58;;;;;;;1999.90;999.90;;;11.20;99.90;;;;;;4789506;30;20483;-68
2022/12/21 04:31:24;;;;;;;1999.90;999.90;;;11.20;99.90;;;;;;4789452;29;20426;-68
2022/12/21 04:33:50;;;;;;;1999.90;999.90;;;;;;;;;;4789617;29;20235;-68
2022/12/21 04:39:00;;;;;;;1999.90;999.90;;;11.00;99.90;;;;;;4789337;30;20509;-69
2022/12/21 04:41:25;;;;;;;1999.90;999.90;;;11.00;99.90;;;;;;4789402;29;20498;-69
2022/12/21 04:43:51;;;;;;;1999.90;999.90;;;11.30;99.90;;;;;;4789392;29;20201;-69
2022/12/21 04:46:17;;;;;;;1999.90;999.90;;;11.40;99.90;;;;;;4787709;29;20181;-68
2022/12/21 04:48:43;;;;;;;1999.90;999.90;;;11.30;99.90;;;;;;4753824;30;20209;-69
2022/12/21 04:51:18;;;;;;;1999.90;999.90;;;11.00;99.90;;;;;;4823025;29;20436;-69
2022/12/21 04:53:44;;;;;;;1999.90;999.90;;;11.20;99.90;;;;;;4825148;29;20562;-69
2022/12/21 04:56:10;;;;;;;1999.90;999.90;;;10.90;99.90;;;;;;4819236;29;20835;-69
2022/12/21 04:58:37;;;;;;;1999.90;999.90;;;11.00;99.90;;;;;;4806858;29;20410;-69
2022/12/21 05:01:14;;;;;;;1999.90;999.90;;;11.00;99.90;;;;;;4807113;29;20837;-69
2022/12/21 05:03:41;;;;;;;1999.90;999.90;;;11.00;99.90;;;;;;4806591;29;20555;-69
2022/12/21 05:06:08;;;;;;;1999.90;999.90;;;11.20;99.90;;;;;;4806308;29;20421;-69
2022/12/21 05:08:33;;;;;;;1999.90;999.90;;;11.00;99.90;;;;;;4806965;29;20826;-69
2022/12/21 05:11:11;;;;;;;1999.90;999.90;;;11.00;99.90;;;;;;4806934;29;20425;-69
2022/12/21 05:13:37;;;;;;;1999.90;999.90;;;11.00;99.90;;;;;;4806912;29;20560;-68
2022/12/21 05:16:04;;;;;;;1999.90;999.90;;;11.00;99.90;;;;;;4806855;29;20422;-68
2022/12/21 05:18:30;;;;;;;1999.90;999.90;;;11.00;99.90;;;;;;4806776;29;20420;-69
2022/12/21 05:20:55;;;;;;;1999.90;999.90;;;10.90;99.90;;;;;;4806831;29;20406;-69
2022/12/21 05:23:21;;;;;;;1999.90;999.90;;;11.00;99.90;;;;;;4806649;29;20208;-69
2022/12/21 05:25:47;;;;;;;1999.90;999.90;;;11.00;99.90;;;;;;4806649;29;20181;-69
2022/12/21 05:28:12;;;;;;;1999.90;999.90;;;11.00;99.90;;;;;;4806497;29;20187;-69
2022/12/21 05:30:38;;;;;;;1999.90;999.90;;;11.20;99.90;;;;;;4806624;29;20254;-69
2022/12/21 05:33:03;;;;;;;1999.90;999.90;;;11.00;99.90;;;;;;4806774;29;20690;-68
2022/12/21 05:35:29;;;;;;;1999.90;999.90;;;11.00;99.90;;;;;;4806541;29;20184;-69
2022/12/21 05:37:54;;;;;;;1999.90;999.90;;;11.10;99.90;;;;;;4806390;29;20187;-69
2022/12/21 05:40:20;;;;;;;1999.90;999.90;;;10.80;99.90;;;;;;4806611;29;20176;-70
2022/12/21 05:42:45;;;;;;;1999.90;999.90;;;11.10;99.90;;;;;;4806649;29;20237;-69
2022/12/21 05:45:11;;;;;;;1999.90;999.90;;;11.10;99.90;;;;;;4809437;29;20697;-68
2022/12/21 05:47:36;;;;;;;1999.90;999.90;;;11.10;99.90;;;;;;4823145;29;20557;-69
2022/12/21 05:50:03;;;;;;;1999.90;999.90;;;11.20;99.90;;;;;;4845149;29;20202;-69
2022/12/21 05:52:29;;;;;;;1999.90;999.90;;;11.10;99.90;;;;;;4857009;29;20274;-69
2022/12/21 05:54:54;;;;;;;1999.90;999.90;;;11.40;99.90;;;;;;4861428;29;20415;-68
2022/12/21 05:57:20;;;;;;;1999.90;999.90;;;11.10;99.90;;;;;;4861047;29;20540;-68
2022/12/21 05:59:45;;;;;;;1999.90;999.90;;;11.10;99.90;;;;;;4860897;29;20178;-68
2022/12/21 06:02:11;;;;;;;1999.90;999.90;;;11.10;99.90;;;;;;4860885;29;20205;-69
2022/12/21 06:04:36;;;;;;;1999.90;999.90;;;10.90;99.90;;;;;;4860947;29;20268;-69
2022/12/21 06:07:02;;;;;;;1999.90;999.90;;;10.90;99.90;;;;;;4860583;29;20540;-69
2022/12/21 06:09:28;;;;;;;1999.90;999.90;;;10.80;99.90;;;;;;4860660;29;20225;-68
2022/12/21 06:11:54;;;;;;;1999.90;999.90;;;10.80;99.90;;;;;;4860644;29;20546;-68
2022/12/21 06:14:19;;;;;;;1999.90;999.90;;;10.90;99.90;;;;;;4860580;29;20213;-69
2022/12/21 06:16:45;;;;;;;1999.90;999.90;;;10.90;99.90;;;;;;4860260;29;20209;-68
2022/12/21 06:19:11;;;;;;;1999.90;999.90;;;10.80;99.90;;;;;;4860445;29;20182;-69
2022/12/21 06:21:36;;;;;;;1999.90;999.90;;;10.80;99.90;;;;;;4860460;29;20415;-68
2022/12/21 06:24:02;;;;;;;1999.90;999.90;;;10.90;99.90;;;;;;4860321;29;20190;-69
2022/12/21 06:26:28;;;;;;;1999.90;999.90;;;10.60;99.90;;;;;;4860486;29;20247;-69
2022/12/21 06:28:54;;;;;;;1999.90;999.90;;;10.80;99.90;;;;;;4860217;29;20189;-69
2022/12/21 06:31:21;;;;;;;1999.90;999.90;;;9.90;99.90;;;;;;4860598;29;20186;-69
2022/12/21 06:33:47;;;;;;;1999.90;999.90;;;10.80;99.90;;;;;;4860251;29;20514;-69
2022/12/21 06:36:13;;;;;;;1999.90;999.90;;;10.50;99.90;;;;;;4860147;29;20423;-68
2022/12/21 06:38:39;;;;;;;1999.90;999.90;;;10.50;99.90;;;;;;4860066;29;20193;-69
2022/12/21 06:41:10;;;;;;;1999.90;999.90;;;11.30;99.90;;;;;;4860205;29;20931;-70
2022/12/21 06:43:37;;;;;;;1999.90;999.90;;;11.30;99.90;;;;;;4860274;29;20446;-69
2022/12/21 06:46:05;;;;;;;1999.90;999.90;;;9.90;99.90;;;;;;4860072;29;20418;-68
2022/12/21 06:48:33;;;;;;;1999.90;999.90;;;10.80;99.90;;;;;;4925068;28;20436;-69
2022/12/21 06:51:01;;;;;;;1999.90;999.90;;;10.30;99.90;;;;;;5011916;28;20529;-69
2022/12/21 06:53:30;;;;;;;1999.90;999.90;;;10.60;99.90;;;;;;5012520;28;20497;-69
2022/12/21 06:56:08;;;;;;;1999.90;999.90;;;10.40;99.90;;;;;;5012392;28;20480;-69
2022/12/21 06:58:34;;;;;;;1999.90;999.90;;;10.40;99.90;;;;;;5012363;28;20434;-69
2022/12/21 07:01:08;;;;;;;1999.90;999.90;;;9.60;99.90;;;;;;5012665;28;20963;-69
2022/12/21 07:03:34;;;;;;;1999.90;999.90;;;10.20;99.90;;;;;;5012429;28;20489;-69
2022/12/21 07:06:01;;;;;;;1999.90;999.90;;;10.40;99.90;;;;;;5012447;28;20407;-69
2022/12/21 07:08:27;;;;;;;1999.90;999.90;;;10.00;99.90;;;;;;5012108;28;20419;-69
2022/12/21 07:11:01;;;;;;;1999.90;999.90;;;10.20;99.90;;;;;;5012222;28;20556;-69
2022/12/21 07:13:27;;;;;;;1999.90;999.90;;;10.00;99.90;;;;;;5012107;28;20953;-69
2022/12/21 07:15:53;;;;;;;1999.90;999.90;;;10.10;99.90;;;;;;5012131;28;20404;-69
2022/12/21 07:18:19;;;;;;;1999.90;999.90;;;10.10;99.90;;;;;;5011952;28;20932;-69
2022/12/21 07:20:45;;;;;;;1999.90;999.90;;;10.50;99.90;;;;;;5012358;28;20178;-69
2022/12/21 07:23:11;;;;;;;1999.90;999.90;;;10.10;99.90;;;;;;5012121;28;20490;-69
2022/12/21 07:25:36;;;;;;;1999.90;999.90;;;10.60;99.90;;;;;;5012109;28;20819;-69
2022/12/21 07:28:02;;;;;;;1999.90;999.90;;;10.10;99.90;;;;;;5013307;28;20209;-69
2022/12/21 07:30:28;;;;;;;1999.90;999.90;;;;;;;;;;5016157;28;20682;-69
2022/12/21 07:32:54;;;;;;;1999.90;999.90;;;;;;;;;;5015903;28;20288;-69
2022/12/21 07:35:23;;;;;;;1999.90;999.90;;;10.40;99.90;;;;;;5016223;28;20410;-69
2022/12/21 07:37:50;;;;;;;1999.90;999.90;;;10.50;99.90;;;;;;5015744;28;20414;-69
2022/12/21 07:40:17;;;;;;;1999.90;999.90;;;10.40;99.90;;;;;;5016011;28;20407;-68
2022/12/21 07:42:46;;;;;;;1999.90;999.90;;;10.50;99.90;;;;;;5015815;28;20423;-69
2022/12/21 07:45:13;;;;;;;1999.90;999.90;;;10.60;99.90;;;;;;5015780;28;20499;-69
2022/12/21 07:47:39;;;;;;;1999.90;999.90;;;10.90;99.90;;;;;;5013658;28;20424;-69
2022/12/21 07:50:06;;;;;;;1999.90;999.90;;;10.70;99.90;;;;;;5031256;28;20435;-69
2022/12/21 07:52:32;;;;;;;1999.90;999.90;;;10.50;99.90;;;;;;5019458;28;20493;-69
2022/12/21 07:54:58;;;;;;;1999.90;999.90;;;11.00;99.90;;;;;;5015779;28;20432;-69
2022/12/21 07:57:23;;;;;;;1999.90;999.90;;;11.40;99.90;;;;;;5015449;28;20524;-69
2022/12/21 07:59:49;;;;;;;1999.90;999.90;;;10.80;99.90;;;;;;5015529;28;20161;-69
2022/12/21 08:02:15;;;;;;;1999.90;999.90;;;10.90;99.90;;;;;;5015729;28;20913;-69
2022/12/21 08:04:41;;;;;;;1999.90;999.90;;;10.70;99.90;;;;;;5015524;28;20197;-69
2022/12/21 08:07:06;;;;;;;1999.90;999.90;;;10.90;99.90;;;;;;5015276;28;20202;-69
2022/12/21 08:09:35;;;;;;;1999.90;999.90;;;11.00;99.90;;;;;;5015368;28;20419;-69
2022/12/21 08:12:01;;;;;;;1999.90;999.90;;;10.80;99.90;;;;;;5015245;28;20785;-69
2022/12/21 08:14:27;;;;;;;1999.90;999.90;;;11.00;99.90;;;;;;5015227;28;20473;-69
2022/12/21 08:16:53;;;;;;;1999.90;999.90;;;11.30;99.90;;;;;;5015221;28;20868;-69
2022/12/21 08:19:19;;;;;;;1999.90;999.90;;;10.80;99.90;;;;;;5015358;28;20635;-68
2022/12/21 08:21:45;;;;;;;1999.90;999.90;;;;;;;;;;5015152;28;20423;-69
2022/12/21 08:24:11;;;;;;;1999.90;999.90;;;11.10;99.90;;;;;;5015115;28;20403;-69
2022/12/21 08:26:37;;;;;;;1999.90;999.90;;;11.10;99.90;;;;;;5014995;28;20415;-69
2022/12/21 08:29:03;;;;;;;1999.90;999.90;;;10.90;99.90;;;;;;5014861;28;20176;-69
2022/12/21 08:31:28;;;;;;;1999.90;999.90;;;11.20;99.90;;;;;;5014957;28;20614;-69
2022/12/21 08:33:54;;;;;;;1999.90;999.90;;;11.60;99.90;;;;;;5015034;28;20464;-69
2022/12/21 08:36:22;;;;;;;1999.90;999.90;;;10.90;99.90;;;;;;5014807;28;20176;-69
2022/12/21 08:38:48;;;;;;;1999.90;999.90;;;11.10;99.90;;;;;;5014683;28;20176;-69
2022/12/21 08:41:15;;;;;;;1999.90;999.90;;;10.70;99.90;;;;;;5014810;28;20400;-69
2022/12/21 08:43:41;;;;;;;1999.90;999.90;;;10.80;99.90;;;;;;5014678;28;20436;-69
2022/12/21 08:46:09;;;;;;;1999.90;999.90;;;11.20;99.90;;;;;;5014655;28;20503;-69
2022/12/21 08:48:35;;;;;;;1999.90;999.90;;;10.80;99.90;;;;;;5026379;28;20257;-69
2022/12/21 08:51:01;;;;;;;1999.90;999.90;;;10.90;99.90;;;;;;5034278;28;20473;-69
2022/12/21 08:53:27;;;;;;;1999.90;999.90;;;11.50;99.90;;;;;;5034188;28;20463;-69
2022/12/21 08:55:54;;;;;;;1999.90;999.90;;;10.60;99.90;;;;;;5034200;28;20418;-69
2022/12/21 08:58:20;;;;;;;1999.90;999.90;;;10.80;99.90;;;;;;5034078;28;20888;-69
2022/12/21 09:00:46;;;;;;;1999.90;999.90;;;;;;;;;;5034247;28;20413;-69
2022/12/21 09:03:12;;;;;;;1999.90;999.90;;;;;;;;;;5034086;28;20931;-69
2022/12/21 09:05:38;;;;;;;1999.90;999.90;;;;;;;;;;5034091;28;20422;-69
2022/12/21 09:08:05;;;;;;;1999.90;999.90;;;10.70;99.90;;;;;;5033864;28;20419;-69
2022/12/21 09:10:32;;;;;;;1999.90;999.90;;;10.70;99.90;;;;;;5034032;28;20421;-69
2022/12/21 09:12:58;;;;;;;1999.90;999.90;;;;;;;;;;5033827;28;20535;-69
2022/12/21 09:15:24;;;;;;;1999.90;999.90;;;10.10;99.90;;;;;;5034389;28;20403;-68
2022/12/21 09:17:50;;;;;;;1999.90;999.90;;;10.00;99.90;;;;;;5033628;28;20410;-68
2022/12/21 09:20:16;;;;;;;1999.90;999.90;;;10.10;99.90;;;;;;5016114;28;20180;-68
2022/12/21 09:22:41;;;;;;;1999.90;999.90;;;10.40;99.90;;;;;;5033832;28;20423;-68
2022/12/21 09:25:07;;;;;;;1999.90;999.90;;;10.40;99.90;;;;;;5033762;28;20203;-68
2022/12/21 09:27:33;;;;;;;1999.90;999.90;;;10.40;99.90;;;;;;5033466;28;20176;-68
2022/12/21 09:29:59;;;;;;;1999.90;999.90;;;10.60;99.90;;;;;;5033687;28;20416;-68
2022/12/21 09:32:24;;;;;;;1999.90;999.90;;;10.50;99.90;;;;;;5033549;28;20202;-69
2022/12/21 09:34:50;;;;;;;1999.90;999.90;;;10.60;99.90;;;;;;5033616;28;20639;-69
2022/12/21 09:37:17;;;;;;;1999.90;999.90;;;10.90;99.90;;;;;;5033334;28;20642;-68
2022/12/21 09:39:43;;;;;;;1999.90;999.90;;;11.00;99.90;;;;;;5033519;28;20406;-69
2022/12/21 09:42:42;;;;;;;1999.90;999.90;;;10.50;99.90;;;;;;5033450;28;20928;-68
2022/12/21 09:45:45;;;;;;;1999.90;999.90;;;11.00;99.90;;;;;;5033522;28;20402;-69
2022/12/21 09:48:16;;;;;;;1999.90;999.90;;;11.00;99.90;;;;;;5017891;28;20457;-68
2022/12/21 09:50:48;;;;;;;1999.90;999.90;;;11.10;99.90;;;;;;5013065;28;20915;-68
2022/12/21 09:53:28;;;;;;;1999.90;999.90;;;11.30;99.90;;;;;;5021216;28;20459;-69
2022/12/21 09:55:57;;;;;;;1999.90;999.90;;;11.30;99.90;;;;;;5032964;28;20931;-68
2022/12/21 09:58:33;;;;;;;1999.90;999.90;;;11.20;99.90;;;;;;5032876;28;20460;-69
2022/12/21 10:01:17;;;;;;;1999.90;999.90;;;11.10;99.90;;;;;;5033178;28;20518;-68
2022/12/21 10:03:45;;;;;;;1999.90;999.90;;;11.30;99.90;;;;;;5033103;28;20431;-69
2022/12/21 10:06:21;;;;;;;1999.90;999.90;;;11.20;99.90;;;;;;5032919;28;20411;-70
2022/12/21 10:09:05;;;;;;;1999.90;999.90;;;11.10;99.90;;;;;;5032597;28;20410;-68
2022/12/21 10:11:49;;;;;;;1999.90;999.90;;;11.00;99.90;;;;;;5032813;28;20501;-69
2022/12/21 10:14:40;;;;;;;1999.90;999.90;;;11.10;99.90;;;;;;5032802;28;20987;-69
2022/12/21 10:17:23;;;;;;;1999.90;999.90;;;11.00;99.90;;;;;;5032527;28;20402;-68
2022/12/21 10:19:57;;;;;;;1999.90;999.90;;;10.90;99.90;;;;;;5032544;28;20410;-69
2022/12/21 10:22:46;;;;;;;1999.90;999.90;;;10.80;99.90;;;;;;5032572;28;20894;-69
2022/12/21 10:25:20;;;;;;;1999.90;999.90;;;10.70;99.90;;;;;;5032499;28;20417;-68
2022/12/21 10:27:58;;;;;;;1999.90;999.90;;;10.70;99.90;;;;;;5032360;28;21168;-71
2022/12/21 10:30:24;;;;;;;1999.90;999.90;;;10.80;99.90;;;;;;5032475;28;20998;-68
2022/12/21 10:32:50;;;;;;;1999.90;999.90;;;10.60;99.90;;;;;;5032308;28;20601;-69
2022/12/21 10:35:22;;;;;;;1999.90;999.90;;;10.60;99.90;;;;;;5032152;28;20236;-69
2022/12/21 10:37:53;;;;;;;1999.90;999.90;;;10.60;99.90;;;;;;5031125;28;20421;-69
2022/12/21 10:40:26;;;;;;;1999.90;999.90;;;10.50;99.90;;;;;;5032153;28;20513;-68
2022/12/21 10:42:53;;;;;;;1999.90;999.90;;;10.40;99.90;;;;;;5032348;28;20524;-69
2022/12/21 10:45:22;;;;;;;1999.90;999.90;;;10.40;99.90;;;;;;5029101;28;20407;-68
2022/12/21 10:47:48;;;;;;;1999.90;999.90;;;10.10;99.90;;;;;;5019333;28;20964;-69
2022/12/21 10:50:23;;;;;;;1999.90;999.90;;;10.60;99.90;;;;;;5012266;28;20418;-69
2022/12/21 10:52:54;;;;;;;1999.90;999.90;;;9.50;99.90;;;;;;5011548;28;20425;-68
2022/12/21 10:55:24;;;;;;;1999.90;999.90;;;10.10;99.90;;;;;;5012452;28;20472;-69
2022/12/21 10:58:10;;;;;;;1999.90;999.90;;;10.40;99.90;;;;;;5011294;28;20415;-68
2022/12/21 11:00:38;;;;;;;1999.90;999.90;;;10.30;99.90;;;;;;5004337;28;20507;-68
2022/12/21 11:03:25;;;;;;;1999.90;999.90;;;10.50;99.90;;;;;;5011402;28;20435;-70
2022/12/21 11:05:51;;;;;;;1999.90;999.90;;;10.50;99.90;;;;;;5011449;28;20438;-70
2022/12/21 11:08:29;;;;;;;1999.90;999.90;;;10.50;99.90;;;;;;5011297;28;20403;-70
2022/12/21 11:11:04;;;;;;;1999.90;999.90;;;10.30;99.90;;;;;;5012074;28;20547;-70
2022/12/21 11:13:32;;;;;;;1999.90;999.90;;;10.30;99.90;;;;;;5011159;28;20466;-69
2022/12/21 11:15:58;;;;;;;1999.90;999.90;;;10.50;99.90;;;;;;5011824;28;20974;-69
2022/12/21 11:18:34;;;;;;;1999.90;999.90;;;10.50;99.90;;;;;;5011696;28;20418;-69
2022/12/21 11:21:02;;;;;;;1999.90;999.90;;;10.50;99.90;;;;;;5011344;28;20530;-69
2022/12/21 11:23:27;;;;;;;1999.90;999.90;;;10.40;99.90;;;;;;5011673;28;20424;-69
2022/12/21 11:25:55;;;;;;;1999.90;999.90;;;10.50;99.90;;;;;;5011667;28;20450;-69
2022/12/21 11:28:22;;;;;;;1999.90;999.90;;;10.80;99.90;;;;;;5010863;28;20626;-69
2022/12/21 11:30:57;;;;;;;1999.90;999.90;;;10.90;99.90;;;;;;5011516;28;20431;-68
2022/12/21 11:33:23;;;;;;;1999.90;999.90;;;11.10;99.90;;;;;;5011426;28;20462;-69
2022/12/21 11:36:08;;;;;;;1999.90;999.90;;;11.10;99.90;;;;;;5011276;28;20407;-69
2022/12/21 11:38:35;;;;;;;1999.90;999.90;;;11.70;99.90;;;;;;5011388;28;20191;-69
2022/12/21 11:41:01;;;;;;;1999.90;999.90;;;11.50;1.00;;;;;;5011627;28;20399;-69
2022/12/21 11:43:27;;;;;;;1999.90;999.90;;;11.70;1.00;;;;;;5011131;28;21080;-69
2022/12/21 11:46:31;;;;;;;1999.90;999.90;;;11.60;1.00;;;;;;5011160;28;20443;-69
2022/12/21 11:49:14;;;;;;;1999.90;999.90;;;11.40;1.00;;;;;;4993968;28;20212;-68
2022/12/21 11:51:48;;;;;;;1999.90;999.90;;;11.00;1.00;;;;;;5010966;28;20461;-69
2022/12/21 11:54:46;;;;;;;1999.90;999.90;;;11.60;1.00;;;;;;5011409;28;20553;-69
2022/12/21 11:57:30;;;;;;;1999.90;999.90;;;11.40;1.00;;;;;;5011109;28;20404;-69
2022/12/21 12:00:07;;;;;;;1999.90;999.90;;;11.50;1.00;;;;;;5010859;28;20499;-69
2022/12/21 12:03:10;;;;;;;1999.90;999.90;;;11.50;1.00;;;;;;5011240;28;20470;-69
2022/12/21 12:06:03;;;;;;;1999.90;999.90;;;11.70;1.00;;;;;;5010684;28;20411;-68
2022/12/21 12:08:41;;;;;;;1999.90;999.90;;;11.90;1.00;;;;;;5010964;28;20647;-69
2022/12/21 12:11:13;;;;;;;1999.90;999.90;;;11.90;1.00;;;;;;5011344;28;20867;-69
2022/12/21 12:14:07;;;;;;;1999.90;999.90;;;12.50;1.00;;;;;;5011520;28;20452;-68
2022/12/21 12:16:47;;;;;;;1999.90;999.90;;;12.40;1.00;;;;;;5014479;28;20462;-68
2022/12/21 12:19:16;;;;;;;1999.90;999.90;;;13.00;1.00;;;;;;5014635;28;20449;-68
2022/12/21 12:21:59;;;;;;;1999.90;999.90;;;14.20;99.90;;;;;;5014265;28;20803;-69
2022/12/21 12:24:39;;;;;;;1999.90;999.90;;;14.10;1.00;;;;;;5014628;28;20410;-69
2022/12/21 12:27:23;;;;;;;1999.90;999.90;;;14.30;1.00;;;;;;5014551;28;20462;-69
2022/12/21 12:29:51;;;;;;;1999.90;999.90;;;14.40;1.00;;;;;;5014605;28;20936;-70
2022/12/21 12:32:26;;;;;;;1999.90;999.90;;;14.30;41.20;;;;;;5014517;28;20445;-70
2022/12/21 12:35:12;;;;;;;1999.90;999.90;;;14.10;17.90;;;;;;5013906;28;20452;-69
2022/12/21 12:38:18;;;;;;;1999.90;999.90;;;13.90;99.90;;;;;;5014212;28;20493;-69